createdAt,value
2018-02-16T00:02:00.244Z,101112.92
2018-02-16T00:04:26.058Z,101117.59
2018-02-16T00:06:51.872Z,101124.47
2018-02-16T00:09:17.714Z,101127.10
2018-02-16T00:11:44.078Z,101128.34
2018-02-16T00:14:09.900Z,101127.76
2018-02-16T00:16:35.739Z,101125.08
2018-02-16T00:19:01.554Z,101130.61
2018-02-16T00:21:27.403Z,101129.37
2018-02-16T00:23:53.207Z,101135.18
2018-02-16T00:26:19.013Z,101131.52
2018-02-16T00:28:44.817Z,101137.45
2018-02-16T00:31:10.633Z,101139.00
2018-02-16T00:33:36.486Z,101140.55
2018-02-16T00:36:02.310Z,101138.23
2018-02-16T00:38:28.158Z,101142.05
2018-02-16T00:40:54.007Z,101145.81
2018-02-16T00:43:19.894Z,101147.29
2018-02-16T00:45:46.716Z,101146.34
2018-02-16T00:48:13.365Z,101148.55
2018-02-16T00:50:39.186Z,101160.23
2018-02-16T00:53:04.999Z,101158.45
2018-02-16T00:55:30.805Z,101165.52
2018-02-16T00:57:56.621Z,101173.31
2018-02-16T01:00:22.437Z,101169.61
2018-02-16T01:02:48.245Z,101182.47
2018-02-16T01:05:14.057Z,101178.81
2018-02-16T01:07:40.709Z,101178.61
2018-02-16T01:10:06.649Z,101177.34
2018-02-16T01:12:32.498Z,101184.11
2018-02-16T01:14:58.354Z,101180.89
2018-02-16T01:17:24.201Z,101181.95
2018-02-16T01:19:50.837Z,101191.34
2018-02-16T01:22:17.598Z,101188.52
2018-02-16T01:24:44.342Z,101186.81
2018-02-16T01:27:10.157Z,101189.14
2018-02-16T01:29:36.799Z,101188.20
2018-02-16T01:32:02.657Z,101187.82
2018-02-16T01:34:28.475Z,101186.45
2018-02-16T01:36:54.286Z,101188.84
2018-02-16T01:39:20.102Z,101188.72
2018-02-16T01:41:45.910Z,101184.32
2018-02-16T01:44:19.593Z,101185.81
2018-02-16T01:46:45.434Z,101188.50
2018-02-16T01:49:11.242Z,101190.14
2018-02-16T01:51:37.866Z,101191.24
2018-02-16T01:54:03.718Z,101190.03
2018-02-16T01:56:29.537Z,101194.59
2018-02-16T01:58:55.349Z,101201.41
2018-02-16T02:01:21.170Z,101194.83
2018-02-16T02:03:46.992Z,101196.61
2018-02-16T02:06:12.802Z,101198.30
2018-02-16T02:08:38.656Z,101191.53
2018-02-16T02:11:04.467Z,101201.77
2018-02-16T02:13:30.286Z,101215.12
2018-02-16T02:15:56.098Z,101220.02
2018-02-16T02:18:21.906Z,101229.84
2018-02-16T02:20:47.718Z,101226.20
2018-02-16T02:23:13.561Z,101226.25
2018-02-16T02:25:39.383Z,101233.91
2018-02-16T02:28:05.205Z,101244.37
2018-02-16T02:30:31.017Z,101241.50
2018-02-16T02:32:56.829Z,101253.92
2018-02-16T02:35:22.642Z,101250.77
2018-02-16T02:37:49.454Z,101254.70
2018-02-16T02:40:16.254Z,101259.34
2018-02-16T02:42:42.062Z,101259.69
2018-02-16T02:45:07.915Z,101257.39
2018-02-16T02:47:34.426Z,101259.03
2018-02-16T02:50:01.240Z,101265.80
2018-02-16T02:52:27.048Z,101271.81
2018-02-16T02:54:53.845Z,101275.46
2018-02-16T02:57:20.563Z,101277.33
2018-02-16T02:59:47.310Z,101285.35
2018-02-16T03:02:14.077Z,101286.94
2018-02-16T03:04:39.883Z,101298.09
2018-02-16T03:07:06.567Z,101296.14
2018-02-16T03:09:33.442Z,101299.41
2018-02-16T03:12:00.248Z,101306.06
2018-02-16T03:14:26.060Z,101315.63
2018-02-16T03:16:51.874Z,101321.58
2018-02-16T03:19:17.685Z,101321.09
2018-02-16T03:21:43.498Z,101324.47
2018-02-16T03:24:09.465Z,101331.44
2018-02-16T03:26:35.278Z,101326.94
2018-02-16T03:29:01.092Z,101328.50
2018-02-16T03:31:26.899Z,101328.87
2018-02-16T03:33:52.701Z,101338.37
2018-02-16T03:36:19.327Z,101345.91
2018-02-16T03:38:45.150Z,101344.88
2018-02-16T03:41:10.993Z,101337.48
2018-02-16T03:43:36.846Z,101341.39
2018-02-16T03:46:03.750Z,101342.51
2018-02-16T03:48:29.608Z,101346.14
2018-02-16T03:50:55.452Z,101345.86
2018-02-16T03:53:21.260Z,101354.28
2018-02-16T03:55:47.097Z,101354.08
2018-02-16T03:58:13.934Z,101356.59
2018-02-16T04:00:40.679Z,101356.09
2018-02-16T04:03:06.491Z,101358.91
2018-02-16T04:05:33.249Z,101364.38
2018-02-16T04:07:59.107Z,101366.36
2018-02-16T04:10:25.739Z,101368.36
2018-02-16T04:12:51.578Z,101370.45
2018-02-16T04:15:17.398Z,101367.11
2018-02-16T04:17:43.274Z,101371.72
2018-02-16T04:20:10.049Z,101370.11
2018-02-16T04:22:36.838Z,101374.60
2018-02-16T04:25:03.605Z,101374.25
2018-02-16T04:27:30.416Z,101378.40
2018-02-16T04:29:56.222Z,101382.30
2018-02-16T04:32:22.033Z,101381.03
2018-02-16T04:34:48.828Z,101377.59
2018-02-16T04:37:15.630Z,101379.44
2018-02-16T04:39:41.479Z,101380.16
2018-02-16T04:42:07.290Z,101384.44
2018-02-16T04:44:33.098Z,101384.98
2018-02-16T04:46:58.988Z,101393.16
2018-02-16T04:49:24.838Z,101393.80
2018-02-16T04:51:50.669Z,101396.28
2018-02-16T04:54:16.481Z,101401.66
2018-02-16T04:56:42.286Z,101401.47
2018-02-16T04:59:08.091Z,101400.17
2018-02-16T05:01:33.899Z,101406.94
2018-02-16T05:03:59.746Z,101415.97
2018-02-16T05:06:25.569Z,101422.58
2018-02-16T05:08:51.384Z,101419.75
2018-02-16T05:11:17.196Z,101422.19
2018-02-16T05:13:43.002Z,101422.53
2018-02-16T05:16:08.811Z,101417.91
2018-02-16T05:18:34.616Z,101419.16
2018-02-16T05:21:00.438Z,101419.55
2018-02-16T05:23:26.248Z,101418.06
2018-02-16T05:25:52.894Z,101426.43
2018-02-16T05:28:18.702Z,101426.31
2018-02-16T05:30:44.506Z,101433.09
2018-02-16T05:33:10.317Z,101440.64
2018-02-16T05:35:36.121Z,101440.76
2018-02-16T05:38:01.943Z,101443.42
2018-02-16T05:40:27.766Z,101440.84
2018-02-16T05:42:53.577Z,101451.22
2018-02-16T05:45:19.513Z,101453.67
2018-02-16T05:47:45.358Z,101456.21
2018-02-16T05:50:11.355Z,101463.17
2018-02-16T05:52:37.161Z,101464.69
2018-02-16T05:55:02.988Z,101466.45
2018-02-16T05:57:29.666Z,101471.39
2018-02-16T05:59:55.517Z,101475.99
2018-02-16T06:02:21.322Z,101478.48
2018-02-16T06:04:47.134Z,101474.90
2018-02-16T06:07:13.918Z,101469.95
2018-02-16T06:09:39.762Z,101479.59
2018-02-16T06:12:05.573Z,101475.71
2018-02-16T06:14:31.417Z,101473.91
2018-02-16T06:16:58.197Z,101481.69
2018-02-16T06:19:24.001Z,101479.44
2018-02-16T06:21:50.836Z,101482.14
2018-02-16T06:24:16.629Z,101485.08
2018-02-16T06:26:42.449Z,101491.77
2018-02-16T06:29:09.116Z,101497.87
2018-02-16T06:31:34.937Z,101497.92
2018-02-16T06:34:00.782Z,101501.72
2018-02-16T06:36:26.595Z,101506.20
2018-02-16T06:38:52.435Z,101505.05
2018-02-16T06:41:19.209Z,101508.36
2018-02-16T06:43:46.046Z,101508.52
2018-02-16T06:46:12.889Z,101515.88
2018-02-16T06:48:39.630Z,101519.68
2018-02-16T06:51:05.484Z,101517.67
2018-02-16T06:53:32.357Z,101528.91
2018-02-16T06:55:59.142Z,101519.31
2018-02-16T06:58:25.761Z,101527.68
2018-02-16T07:00:52.522Z,101524.87
2018-02-16T07:03:19.280Z,101524.52
2018-02-16T07:05:46.067Z,101531.48
2018-02-16T07:08:11.902Z,101528.30
2018-02-16T07:10:37.835Z,101521.50
2018-02-16T07:13:04.239Z,101518.98
2018-02-16T07:15:30.114Z,101531.06
2018-02-16T07:17:56.919Z,101537.16
2018-02-16T07:20:22.927Z,101537.23
2018-02-16T07:22:49.582Z,101546.73
2018-02-16T07:25:16.407Z,101550.54
2018-02-16T07:27:43.235Z,101557.48
2018-02-16T07:30:09.109Z,101574.98
2018-02-16T07:32:34.950Z,101575.61
2018-02-16T07:35:00.774Z,101581.19
2018-02-16T07:39:59.248Z,101577.45
2018-02-16T07:42:25.178Z,101595.83
2018-02-16T07:44:51.904Z,101592.83
2018-02-16T07:47:18.562Z,101593.67
2018-02-16T07:49:47.813Z,101588.93
2018-02-16T07:52:13.686Z,101594.88
2018-02-16T07:54:39.734Z,101601.20
2018-02-16T07:57:05.553Z,101608.73
2018-02-16T07:59:31.373Z,101617.01
2018-02-16T08:01:57.185Z,101617.78
2018-02-16T08:04:23.030Z,101621.36
2018-02-16T08:06:49.711Z,101618.79
2018-02-16T08:09:15.566Z,101616.70
2018-02-16T08:11:41.374Z,101622.48
2018-02-16T08:14:07.182Z,101625.95
2018-02-16T08:16:34.881Z,101637.91
2018-02-16T08:19:02.232Z,101635.75
2018-02-16T08:21:28.780Z,101638.48
2018-02-16T08:23:55.484Z,101639.76
2018-02-16T08:26:22.022Z,101633.48
2018-02-16T08:28:49.413Z,101634.75
2018-02-16T08:31:15.402Z,101639.18
2018-02-16T08:33:41.307Z,101638.59
2018-02-16T08:36:07.150Z,101640.91
2018-02-16T08:38:32.956Z,101638.56
2018-02-16T08:40:58.757Z,101647.88
2018-02-16T08:43:24.589Z,101649.14
2018-02-16T08:45:50.398Z,101637.81
2018-02-16T08:48:16.205Z,101642.76
2018-02-16T08:50:42.150Z,101653.56
2018-02-16T08:53:08.801Z,101654.20
2018-02-16T08:55:34.809Z,101654.87
2018-02-16T08:58:00.605Z,101654.52
2018-02-16T09:00:26.410Z,101663.17
2018-02-16T09:02:52.395Z,101667.33
2018-02-16T09:05:18.206Z,101664.17
2018-02-16T09:07:44.005Z,101657.48
2018-02-16T09:10:09.801Z,101664.20
2018-02-16T09:12:35.686Z,101664.11
2018-02-16T09:15:01.486Z,101667.86
2018-02-16T09:17:27.326Z,101668.36
2018-02-16T09:19:53.134Z,101668.90
2018-02-16T09:22:19.050Z,101676.95
2018-02-16T09:24:44.991Z,101686.05
2018-02-16T09:27:10.794Z,101692.61
2018-02-16T09:29:36.657Z,101682.45
2018-02-16T09:32:02.460Z,101691.73
2018-02-16T09:34:28.338Z,101685.70
2018-02-16T09:36:54.726Z,101691.76
2018-02-16T09:39:23.006Z,101687.48
2018-02-16T09:41:49.639Z,101698.02
2018-02-16T09:44:15.490Z,101696.95
2018-02-16T09:46:41.293Z,101697.97
2018-02-16T09:49:07.176Z,101705.06
2018-02-16T09:51:32.981Z,101700.95
2018-02-16T09:53:58.945Z,101703.33
2018-02-16T09:56:24.786Z,101703.66
2018-02-16T09:58:50.611Z,101713.87
2018-02-16T10:01:16.417Z,101706.02
2018-02-16T10:03:42.281Z,101705.80
2018-02-16T10:06:08.126Z,101704.73
2018-02-16T10:08:33.974Z,101705.23
2018-02-16T10:11:00.622Z,101700.46
2018-02-16T10:13:26.653Z,101715.36
2018-02-16T10:15:53.374Z,101717.50
2018-02-16T10:18:19.185Z,101716.88
2018-02-16T10:20:46.034Z,101717.64
2018-02-16T10:23:11.841Z,101720.63
2018-02-16T10:25:37.865Z,101725.53
2018-02-16T10:28:03.666Z,101734.44
2018-02-16T10:30:29.513Z,101730.77
2018-02-16T10:32:55.357Z,101737.92
2018-02-16T10:35:21.275Z,101726.07
2018-02-16T10:37:47.100Z,101728.19
2018-02-16T10:40:12.906Z,101731.88
2018-02-16T10:42:38.823Z,101733.70
2018-02-16T10:45:04.639Z,101729.75
2018-02-16T10:47:30.450Z,101727.58
2018-02-16T10:49:56.302Z,101732.42
2018-02-16T10:52:22.118Z,101738.23
2018-02-16T10:54:49.090Z,101738.64
2018-02-16T10:57:14.900Z,101736.70
2018-02-16T10:59:40.748Z,101739.70
2018-02-16T11:02:12.637Z,101740.59
2018-02-16T11:04:44.756Z,101744.98
2018-02-16T11:07:16.738Z,101741.60
2018-02-16T11:09:42.626Z,101747.25
2018-02-16T11:12:08.602Z,101738.99
2018-02-16T11:14:35.049Z,101733.64
2018-02-16T11:17:00.898Z,101743.23
2018-02-16T11:19:26.707Z,101747.64
2018-02-16T11:21:53.526Z,101744.08
2018-02-16T11:24:20.270Z,101743.13
2018-02-16T11:26:46.078Z,101745.04
2018-02-16T11:29:11.887Z,101748.09
2018-02-16T11:31:37.687Z,101749.89
2018-02-16T11:34:03.537Z,101748.00
2018-02-16T11:36:30.357Z,101747.74
2018-02-16T11:38:57.178Z,101748.52
2018-02-16T11:41:23.998Z,101753.32
2018-02-16T11:43:49.841Z,101750.78
2018-02-16T11:46:15.705Z,101756.95
2018-02-16T11:48:42.324Z,101752.41
2018-02-16T11:51:08.278Z,101760.98
2018-02-16T11:53:34.082Z,101759.70
2018-02-16T11:55:59.907Z,101760.07
2018-02-16T11:58:25.715Z,101758.14
2018-02-16T12:00:51.517Z,101757.36
2018-02-16T12:03:18.338Z,101761.45
2018-02-16T12:05:44.185Z,101770.84
2018-02-16T12:08:10.003Z,101764.52
2018-02-16T12:10:35.817Z,101763.48
2018-02-16T12:13:01.622Z,101766.64
2018-02-16T12:15:27.438Z,101769.81
2018-02-16T12:17:53.242Z,101767.81
2018-02-16T12:20:19.057Z,101765.70
2018-02-16T12:22:44.869Z,101774.88
2018-02-16T12:25:10.681Z,101776.14
2018-02-16T12:27:37.409Z,101775.04
2018-02-16T12:30:03.223Z,101773.98
2018-02-16T12:32:29.885Z,101776.09
2018-02-16T12:34:55.692Z,101774.50
2018-02-16T12:37:22.464Z,101775.25
2018-02-16T12:39:48.678Z,101771.08
2018-02-16T12:42:21.382Z,101786.36
2018-02-16T12:44:47.200Z,101788.43
2018-02-16T12:47:13.014Z,101791.90
2018-02-16T12:49:38.822Z,101791.69
2018-02-16T12:52:04.629Z,101798.28
2018-02-16T12:54:30.433Z,101791.84
2018-02-16T12:56:56.246Z,101802.09
2018-02-16T12:59:22.238Z,101807.29
2018-02-16T13:01:48.077Z,101808.93
2018-02-16T13:04:13.911Z,101808.93
2018-02-16T13:06:39.728Z,101818.67
2018-02-16T13:09:05.561Z,101809.28
2018-02-16T13:11:31.370Z,101808.22
2018-02-16T13:13:57.187Z,101808.36
2018-02-16T13:16:22.996Z,101803.39
2018-02-16T13:18:48.810Z,101801.75
2018-02-16T13:21:14.622Z,101800.96
2018-02-16T13:23:40.436Z,101807.17
2018-02-16T13:26:06.266Z,101805.28
2018-02-16T13:28:32.106Z,101808.19
2018-02-16T13:30:58.822Z,101810.91
2018-02-16T13:33:25.650Z,101809.87
2018-02-16T13:35:52.326Z,101810.30
2018-02-16T13:38:19.078Z,101812.98
2018-02-16T13:40:45.872Z,101814.70
2018-02-16T13:43:12.589Z,101817.95
2018-02-16T13:45:38.398Z,101810.41
2018-02-16T13:48:05.047Z,101816.27
2018-02-16T13:50:31.576Z,101825.37
2018-02-16T13:52:58.241Z,101821.74
2018-02-16T13:55:24.890Z,101830.33
2018-02-16T13:57:50.691Z,101827.02
2018-02-16T14:00:17.555Z,101823.91
2018-02-16T14:02:43.358Z,101824.64
2018-02-16T14:05:10.114Z,101830.33
2018-02-16T14:07:35.930Z,101831.13
2018-02-16T14:10:02.810Z,101829.34
2018-02-16T14:12:28.649Z,101832.23
2018-02-16T14:14:55.313Z,101821.17
2018-02-16T14:17:22.174Z,101823.55
2018-02-16T14:19:48.849Z,101835.30
2018-02-16T14:22:14.697Z,101838.03
2018-02-16T14:24:41.306Z,101830.76
2018-02-16T14:27:07.146Z,101840.13
2018-02-16T14:29:32.986Z,101831.31
2018-02-16T14:31:58.796Z,101842.52
2018-02-16T14:34:25.584Z,101843.84
2018-02-16T14:36:51.386Z,101839.65
2018-02-16T14:39:18.018Z,101842.72
2018-02-16T14:41:43.833Z,101847.84
2018-02-16T14:44:10.580Z,101845.52
2018-02-16T14:46:36.406Z,101843.82
2018-02-16T14:49:03.176Z,101847.88
2018-02-16T14:51:29.958Z,101848.73
2018-02-16T14:53:56.718Z,101850.63
2018-02-16T14:56:23.354Z,101853.73
2018-02-16T14:58:49.206Z,101851.89
2018-02-16T15:01:15.925Z,101858.00
2018-02-16T15:03:41.749Z,101852.41
2018-02-16T15:06:08.510Z,101854.56
2018-02-16T15:08:34.352Z,101861.03
2018-02-16T15:11:01.044Z,101865.54
2018-02-16T15:13:27.715Z,101867.22
2018-02-16T15:15:54.498Z,101867.94
2018-02-16T15:18:21.119Z,101866.12
2018-02-16T15:20:47.914Z,101870.02
2018-02-16T15:23:14.702Z,101870.01
2018-02-16T15:25:41.313Z,101873.82
2018-02-16T15:28:07.123Z,101871.81
2018-02-16T15:30:32.945Z,101875.97
2018-02-16T15:32:59.641Z,101877.29
2018-02-16T15:35:25.446Z,101873.01
2018-02-16T15:37:52.287Z,101877.87
2018-02-16T15:40:18.086Z,101878.81
2018-02-16T15:42:44.886Z,101881.14
2018-02-16T15:45:10.726Z,101886.69
2018-02-16T15:47:37.546Z,101886.33
2018-02-16T15:50:04.313Z,101888.69
2018-02-16T15:52:30.117Z,101888.69
2018-02-16T15:54:56.889Z,101891.64
2018-02-16T15:57:23.625Z,101894.05
2018-02-16T15:59:50.423Z,101894.48
2018-02-16T16:02:16.233Z,101897.27
2018-02-16T16:04:42.986Z,101899.36
2018-02-16T16:10:19.495Z,101905.31
2018-02-16T16:12:45.280Z,101911.13
2018-02-16T16:15:11.866Z,101906.30
2018-02-16T16:17:37.642Z,101916.66
2018-02-16T16:20:04.369Z,101916.98
2018-02-16T16:22:30.169Z,101925.63
2018-02-16T16:24:56.873Z,101928.25
2018-02-16T16:27:22.660Z,101932.41
2018-02-16T16:29:48.446Z,101935.70
2018-02-16T16:32:14.221Z,101939.86
2018-02-16T16:34:40.000Z,101936.42
2018-02-16T16:37:05.770Z,101939.06
2018-02-16T16:39:32.562Z,101945.48
2018-02-16T16:41:58.339Z,101946.13
2018-02-16T16:44:25.073Z,101949.56
2018-02-16T16:46:50.859Z,101955.63
2018-02-16T16:49:16.630Z,101953.84
2018-02-16T16:51:42.414Z,101959.88
2018-02-16T16:54:08.246Z,101967.67
2018-02-16T16:56:34.940Z,101968.91
2018-02-16T16:59:01.694Z,101972.52
2018-02-16T17:01:27.473Z,101980.91
2018-02-16T17:03:53.266Z,101986.98
2018-02-16T17:06:19.048Z,101993.13
2018-02-16T17:08:44.827Z,101995.83
2018-02-16T17:11:10.642Z,101989.19
2018-02-16T17:13:36.418Z,101988.68
2018-02-16T17:16:02.197Z,101997.58
2018-02-16T17:18:27.975Z,101990.47
2018-02-16T17:20:53.749Z,101996.94
2018-02-16T17:23:19.518Z,101997.13
2018-02-16T17:25:45.329Z,101999.30
2018-02-16T17:28:11.938Z,101998.41
2018-02-16T17:30:38.785Z,102001.80
2018-02-16T17:33:05.507Z,102012.94
2018-02-16T17:35:32.190Z,102008.02
2018-02-16T17:37:58.003Z,102005.93
2018-02-16T17:40:24.601Z,102005.37
2018-02-16T17:42:50.431Z,102008.76
2018-02-16T17:45:16.997Z,102013.42
2018-02-16T17:47:42.848Z,102017.01
2018-02-16T17:50:08.620Z,102013.14
2018-02-16T17:52:34.443Z,102016.95
2018-02-16T17:55:01.213Z,102011.80
2018-02-16T17:57:27.031Z,102007.58
2018-02-16T17:59:52.815Z,102012.63
2018-02-16T18:02:18.665Z,102018.23
2018-02-16T18:04:44.442Z,102016.81
2018-02-16T18:07:10.213Z,102014.41
2018-02-16T18:09:36.017Z,102016.02
2018-02-16T18:12:01.799Z,102017.00
2018-02-16T18:14:27.613Z,102023.08
2018-02-16T18:16:53.713Z,102017.42
2018-02-16T18:19:19.546Z,102013.77
2018-02-16T18:21:45.322Z,102019.31
2018-02-16T18:24:11.140Z,102020.95
2018-02-16T18:26:36.909Z,102025.15
2018-02-16T18:29:02.725Z,102021.24
2018-02-16T18:31:28.503Z,102025.70
2018-02-16T18:33:54.283Z,102020.55
2018-02-16T18:36:20.090Z,102023.59
2018-02-16T18:38:45.870Z,102027.41
2018-02-16T18:41:11.682Z,102025.86
2018-02-16T18:43:37.458Z,102030.27
2018-02-16T18:46:03.298Z,102033.29
2018-02-16T18:48:30.055Z,102034.98
2018-02-16T18:50:55.838Z,102034.73
2018-02-16T18:53:21.605Z,102035.44
2018-02-16T18:55:47.428Z,102034.17
2018-02-16T18:58:13.206Z,102039.34
2018-02-16T19:00:39.989Z,102042.36
2018-02-16T19:03:06.745Z,102043.17
2018-02-16T19:05:33.520Z,102043.83
2018-02-16T19:07:59.334Z,102040.01
2018-02-16T19:10:26.129Z,102036.62
2018-02-16T19:12:51.946Z,102047.63
2018-02-16T19:15:18.650Z,102051.25
2018-02-16T19:17:44.468Z,102056.66
2018-02-16T19:20:10.246Z,102049.56
2018-02-16T19:22:36.030Z,102045.70
2018-02-16T19:25:01.809Z,102040.71
2018-02-16T19:27:27.589Z,102033.10
2018-02-16T19:29:54.235Z,102037.00
2018-02-16T19:32:20.018Z,102040.34
2018-02-16T19:34:45.829Z,102041.89
2018-02-16T19:37:11.601Z,102038.73
2018-02-16T19:39:38.382Z,102033.03
2018-02-16T19:42:04.161Z,102038.37
2018-02-16T19:44:29.936Z,102033.52
2018-02-16T19:46:55.710Z,102039.82
2018-02-16T19:49:21.489Z,102047.72
2018-02-16T19:51:48.215Z,102043.39
2018-02-16T19:54:15.007Z,102041.47
2018-02-16T19:56:40.841Z,102044.81
2018-02-16T19:59:07.390Z,102043.83
2018-02-16T20:01:33.191Z,102037.70
2018-02-16T20:04:00.013Z,102038.37
2018-02-16T20:06:25.870Z,102043.11
2018-02-16T20:08:51.670Z,102043.25
2018-02-16T20:11:18.418Z,102041.28
2018-02-16T20:13:45.197Z,102043.63
2018-02-16T20:16:10.994Z,102041.05
2018-02-16T20:18:36.832Z,102040.58
2018-02-16T20:21:02.613Z,102036.52
2018-02-16T20:23:29.257Z,102042.73
2018-02-16T20:25:55.050Z,102039.30
2018-02-16T20:28:21.713Z,102044.98
2018-02-16T20:30:47.549Z,102046.64
2018-02-16T20:33:13.334Z,102052.39
2018-02-16T20:35:39.150Z,102056.78
2018-02-16T20:38:04.940Z,102061.91
2018-02-16T20:40:30.877Z,102050.42
2018-02-16T20:42:56.769Z,102047.39
2018-02-16T20:45:22.733Z,102048.23
2018-02-16T20:47:49.320Z,102051.86
2018-02-16T20:50:15.158Z,102054.50
2018-02-16T20:52:41.002Z,102054.75
2018-02-16T20:55:07.683Z,102051.13
2018-02-16T20:57:34.351Z,102060.91
2018-02-16T21:00:00.157Z,102065.88
2018-02-16T21:02:26.769Z,102062.98
2018-02-16T21:04:53.550Z,102066.06
2018-02-16T21:07:19.336Z,102062.09
2018-02-16T21:09:45.149Z,102061.71
2018-02-16T21:12:10.989Z,102065.18
2018-02-16T21:14:36.773Z,102067.25
2018-02-16T21:17:02.634Z,102075.01
2018-02-16T21:19:28.432Z,102065.06
2018-02-16T21:21:55.081Z,102071.40
2018-02-16T21:24:20.865Z,102079.42
2018-02-16T21:26:47.495Z,102074.30
2018-02-16T21:29:13.300Z,102077.03
2018-02-16T21:31:39.877Z,102084.53
2018-02-16T21:34:05.660Z,102086.38
2018-02-16T21:36:32.468Z,102085.25
2018-02-16T21:38:58.286Z,102089.39
2018-02-16T21:41:24.073Z,102085.73
2018-02-16T21:43:50.797Z,102088.95
2018-02-16T21:46:16.634Z,102088.17
2018-02-16T21:48:42.537Z,102090.74
2018-02-16T21:51:08.319Z,102094.44
2018-02-16T21:53:34.103Z,102096.20
2018-02-16T21:55:59.881Z,102097.41
2018-02-16T21:58:25.657Z,102101.45
2018-02-16T22:00:52.413Z,102103.41
2018-02-16T22:03:18.208Z,102094.00
2018-02-16T22:05:44.008Z,102101.84
2018-02-16T22:08:10.734Z,102096.73
2018-02-16T22:10:37.611Z,102100.19
2018-02-16T22:13:04.323Z,102102.20
2018-02-16T22:15:30.158Z,102097.71
2018-02-16T22:17:55.977Z,102094.16
2018-02-16T22:20:21.801Z,102082.93
2018-02-16T22:22:47.597Z,102085.45
2018-02-16T22:25:13.515Z,102088.19
2018-02-16T22:27:39.520Z,102085.97
2018-02-16T22:30:05.362Z,102088.07
2018-02-16T22:32:31.250Z,102094.45
2018-02-16T22:34:57.887Z,102092.67
2018-02-16T22:37:24.676Z,102094.41
2018-02-16T22:39:51.554Z,102093.11
2018-02-16T22:42:17.342Z,102093.47
2018-02-16T22:44:43.134Z,102094.19
2018-02-16T22:47:10.111Z,102096.56
2018-02-16T22:49:36.725Z,102088.03
2018-02-16T22:52:02.521Z,102090.14
2018-02-16T22:54:28.306Z,102090.84
2018-02-16T22:56:54.085Z,102087.11
2018-02-16T22:59:19.880Z,102088.38
2018-02-16T23:01:45.672Z,102082.91
2018-02-16T23:04:12.400Z,102089.05
2018-02-16T23:06:38.223Z,102084.94
2018-02-16T23:09:04.021Z,102090.33
2018-02-16T23:11:29.819Z,102088.59
2018-02-16T23:13:55.616Z,102093.06
2018-02-16T23:16:22.430Z,102089.39
2018-02-16T23:18:48.217Z,102093.56
2018-02-16T23:21:14.872Z,102090.11
2018-02-16T23:23:40.655Z,102093.02
2018-02-16T23:26:06.440Z,102089.27
2018-02-16T23:28:32.225Z,102093.39
2018-02-16T23:30:59.003Z,102088.04
2018-02-16T23:33:24.785Z,102083.88
2018-02-16T23:35:50.561Z,102084.61
2018-02-16T23:38:16.346Z,102081.98
2018-02-16T23:40:42.125Z,102084.61
2018-02-16T23:43:07.862Z,102086.08
2018-02-16T23:45:33.682Z,102082.78
2018-02-16T23:48:00.424Z,102086.71
2018-02-16T23:50:26.206Z,102086.25
2018-02-16T23:52:53.014Z,102090.58
2018-02-16T23:55:18.798Z,102078.84
2018-02-16T23:57:44.573Z,102078.66
